sensor_id;sensor_type;location;lat;lon;timestamp;temperature;humidity
8896;DHT22;4484;48.928;10.066;2024-01-15T00:00:21;-4.70;99.90
8896;DHT22;4484;48.928;10.066;2024-01-15T00:02:48;-4.60;99.90
8896;DHT22;4484;48.928;10.066;2024-01-15T00:05:15;-4.60;99.90
8896;DHT22;4484;48.928;10.066;2024-01-15T00:07:42;-4.60;99.90
8896;DHT22;4484;48.928;10.066;2024-01-15T00:10:09;-4.60;99.90
8896;DHT22;4484;48.928;10.066;2024-01-15T00:12:35;-4.60;99.90
8896;DHT22;4484;48.928;10.066;2024-01-15T00:15:03;-4.60;99.90
8896;DHT22;4484;48.928;10.066;2024-01-15T00:17:30;-4.60;99.90
8896;DHT22;4484;48.928;10.066;2024-01-15T00:19:56;-4.50;99.90
8896;DHT22;4484;48.928;10.066;2024-01-15T00:22:25;-4.50;99.90
8896;DHT22;4484;48.928;10.066;2024-01-15T00:24:53;-4.50;99.90
8896;DHT22;4484;48.928;10.066;2024-01-15T00:27:20;-4.50;99.90
8896;DHT22;4484;48.928;10.066;2024-01-15T00:29:47;-4.50;99.90
8896;DHT22;4484;48.928;10.066;2024-01-15T00:32:14;-4.50;99.90
8896;DHT22;4484;48.928;10.066;2024-01-15T00:34:41;-4.40;99.90
8896;DHT22;4484;48.928;10.066;2024-01-15T00:37:08;-4.50;99.90
8896;DHT22;4484;48.928;10.066;2024-01-15T00:39:35;-4.40;99.90
8896;DHT22;4484;48.928;10.066;2024-01-15T00:42:02;-4.40;99.90
8896;DHT22;4484;48.928;10.066;2024-01-15T00:44:29;-4.30;99.90
8896;DHT22;4484;48.928;10.066;2024-01-15T00:46:56;-4.30;99.90
8896;DHT22;4484;48.928;10.066;2024-01-15T00:49:23;-4.30;99.90
8896;DHT22;4484;48.928;10.066;2024-01-15T00:51:51;-4.30;99.90
8896;DHT22;4484;48.928;10.066;2024-01-15T00:54:18;-4.30;99.90
8896;DHT22;4484;48.928;10.066;2024-01-15T00:56:45;-4.20;99.90
8896;DHT22;4484;48.928;10.066;2024-01-15T00:59:12;-4.20;99.90
8896;DHT22;4484;48.928;10.066;2024-01-15T01:01:42;-4.20;99.90
8896;DHT22;4484;48.928;10.066;2024-01-15T01:04:10;-4.30;99.90
8896;DHT22;4484;48.928;10.066;2024-01-15T01:06:37;-4.20;99.90
8896;DHT22;4484;48.928;10.066;2024-01-15T01:09:04;-4.20;99.90
8896;DHT22;4484;48.928;10.066;2024-01-15T01:11:31;-4.20;99.90
8896;DHT22;4484;48.928;10.066;2024-01-15T01:13:58;-4.20;99.90
8896;DHT22;4484;48.928;10.066;2024-01-15T01:16:25;-4.20;99.90
8896;DHT22;4484;48.928;10.066;2024-01-15T01:18:52;-4.20;99.90
8896;DHT22;4484;48.928;10.066;2024-01-15T01:21:19;-4.20;99.90
8896;DHT22;4484;48.928;10.066;2024-01-15T01:23:46;-4.20;99.90
8896;DHT22;4484;48.928;10.066;2024-01-15T01:26:16;-4.30;99.90
8896;DHT22;4484;48.928;10.066;2024-01-15T01:28:43;-4.30;99.90
8896;DHT22;4484;48.928;10.066;2024-01-15T01:31:10;-4.30;99.90
8896;DHT22;4484;48.928;10.066;2024-01-15T01:33:38;-4.30;99.90
8896;DHT22;4484;48.928;10.066;2024-01-15T01:36:08;-4.40;99.90
8896;DHT22;4484;48.928;10.066;2024-01-15T01:38:37;-4.30;99.90
8896;DHT22;4484;48.928;10.066;2024-01-15T01:41:04;-4.40;99.90
8896;DHT22;4484;48.928;10.066;2024-01-15T01:43:31;-4.40;99.90
8896;DHT22;4484;48.928;10.066;2024-01-15T01:45:58;-4.40;99.90
8896;DHT22;4484;48.928;10.066;2024-01-15T01:48:27;-4.40;99.90
8896;DHT22;4484;48.928;10.066;2024-01-15T01:50:57;-4.40;99.90
8896;DHT22;4484;48.928;10.066;2024-01-15T01:53:25;-4.40;99.90
8896;DHT22;4484;48.928;10.066;2024-01-15T01:55:53;-4.40;99.90
8896;DHT22;4484;48.928;10.066;2024-01-15T01:58:20;-4.40;99.90
8896;DHT22;4484;48.928;10.066;2024-01-15T02:00:48;-4.40;99.90
8896;DHT22;4484;48.928;10.066;2024-01-15T02:03:16;-4.40;99.90
8896;DHT22;4484;48.928;10.066;2024-01-15T02:05:43;-4.40;99.90
8896;DHT22;4484;48.928;10.066;2024-01-15T02:08:11;-4.40;99.90
8896;DHT22;4484;48.928;10.066;2024-01-15T02:10:38;-4.40;99.90
8896;DHT22;4484;48.928;10.066;2024-01-15T02:13:05;-4.40;99.90
8896;DHT22;4484;48.928;10.066;2024-01-15T02:15:32;-4.40;99.90
8896;DHT22;4484;48.928;10.066;2024-01-15T02:18:00;-4.40;99.90
8896;DHT22;4484;48.928;10.066;2024-01-15T02:20:28;-4.40;99.90
8896;DHT22;4484;48.928;10.066;2024-01-15T02:23:11;-4.40;99.90
8896;DHT22;4484;48.928;10.066;2024-01-15T02:25:43;-4.40;99.90
8896;DHT22;4484;48.928;10.066;2024-01-15T02:28:14;-4.40;99.90
8896;DHT22;4484;48.928;10.066;2024-01-15T02:30:42;-4.40;99.90
8896;DHT22;4484;48.928;10.066;2024-01-15T02:33:10;-4.30;99.90
8896;DHT22;4484;48.928;10.066;2024-01-15T02:35:38;-4.20;99.90
8896;DHT22;4484;48.928;10.066;2024-01-15T02:38:06;-4.20;99.90
8896;DHT22;4484;48.928;10.066;2024-01-15T02:40:33;-4.10;99.90
8896;DHT22;4484;48.928;10.066;2024-01-15T02:43:00;-4.00;99.90
8896;DHT22;4484;48.928;10.066;2024-01-15T02:45:27;-4.00;99.90
8896;DHT22;4484;48.928;10.066;2024-01-15T02:47:54;-4.00;99.90
8896;DHT22;4484;48.928;10.066;2024-01-15T02:50:21;-3.90;99.90
8896;DHT22;4484;48.928;10.066;2024-01-15T02:52:48;-3.90;99.90
8896;DHT22;4484;48.928;10.066;2024-01-15T02:55:15;-3.80;99.90
8896;DHT22;4484;48.928;10.066;2024-01-15T02:57:42;-3.80;99.90
8896;DHT22;4484;48.928;10.066;2024-01-15T03:00:09;-3.70;99.90
8896;DHT22;4484;48.928;10.066;2024-01-15T03:02:37;-3.70;99.90
8896;DHT22;4484;48.928;10.066;2024-01-15T03:05:09;-3.70;99.90
8896;DHT22;4484;48.928;10.066;2024-01-15T03:07:36;-3.60;99.90
8896;DHT22;4484;48.928;10.066;2024-01-15T03:10:04;-3.60;99.90
8896;DHT22;4484;48.928;10.066;2024-01-15T03:12:32;-3.50;99.90
8896;DHT22;4484;48.928;10.066;2024-01-15T03:14:59;-3.50;99.90
8896;DHT22;4484;48.928;10.066;2024-01-15T03:17:26;-3.50;99.90
8896;DHT22;4484;48.928;10.066;2024-01-15T03:19:53;-3.40;99.90
8896;DHT22;4484;48.928;10.066;2024-01-15T03:22:20;-3.40;99.90
8896;DHT22;4484;48.928;10.066;2024-01-15T03:24:46;-3.40;99.90
8896;DHT22;4484;48.928;10.066;2024-01-15T03:27:13;-3.40;99.90
8896;DHT22;4484;48.928;10.066;2024-01-15T03:29:41;-3.30;99.90
8896;DHT22;4484;48.928;10.066;2024-01-15T03:32:08;-3.30;99.90
8896;DHT22;4484;48.928;10.066;2024-01-15T03:34:34;-3.30;99.90
8896;DHT22;4484;48.928;10.066;2024-01-15T03:37:01;-3.20;99.90
8896;DHT22;4484;48.928;10.066;2024-01-15T03:39:28;-3.20;99.90
8896;DHT22;4484;48.928;10.066;2024-01-15T03:41:55;-3.20;99.90
8896;DHT22;4484;48.928;10.066;2024-01-15T03:44:22;-3.10;99.90
8896;DHT22;4484;48.928;10.066;2024-01-15T03:46:49;-3.10;99.90
8896;DHT22;4484;48.928;10.066;2024-01-15T03:49:16;-3.10;99.90
8896;DHT22;4484;48.928;10.066;2024-01-15T03:51:44;-3.00;99.90
8896;DHT22;4484;48.928;10.066;2024-01-15T03:54:11;-3.00;99.90
8896;DHT22;4484;48.928;10.066;2024-01-15T03:56:38;-3.00;99.90
8896;DHT22;4484;48.928;10.066;2024-01-15T03:59:05;-2.90;99.90
8896;DHT22;4484;48.928;10.066;2024-01-15T04:01:31;-3.00;99.90
8896;DHT22;4484;48.928;10.066;2024-01-15T04:03:58;-3.00;99.90
8896;DHT22;4484;48.928;10.066;2024-01-15T04:06:25;-2.90;99.90
8896;DHT22;4484;48.928;10.066;2024-01-15T04:08:52;-2.90;99.90
8896;DHT22;4484;48.928;10.066;2024-01-15T04:11:19;-2.90;99.90
8896;DHT22;4484;48.928;10.066;2024-01-15T04:13:46;-2.90;99.90
8896;DHT22;4484;48.928;10.066;2024-01-15T04:16:13;-2.80;99.90
8896;DHT22;4484;48.928;10.066;2024-01-15T04:18:40;-2.80;99.90
8896;DHT22;4484;48.928;10.066;2024-01-15T04:21:06;-2.90;99.90
8896;DHT22;4484;48.928;10.066;2024-01-15T04:23:33;-2.90;99.90
8896;DHT22;4484;48.928;10.066;2024-01-15T04:26:00;-2.80;99.90
8896;DHT22;4484;48.928;10.066;2024-01-15T04:28:27;-2.80;99.90
8896;DHT22;4484;48.928;10.066;2024-01-15T04:30:54;-2.80;99.90
8896;DHT22;4484;48.928;10.066;2024-01-15T04:33:21;-2.80;99.90
8896;DHT22;4484;48.928;10.066;2024-01-15T04:35:49;-2.80;99.90
8896;DHT22;4484;48.928;10.066;2024-01-15T04:38:16;-2.80;99.90
8896;DHT22;4484;48.928;10.066;2024-01-15T04:40:42;-2.70;99.90
8896;DHT22;4484;48.928;10.066;2024-01-15T04:43:09;-2.70;99.90
8896;DHT22;4484;48.928;10.066;2024-01-15T04:45:36;-2.60;99.90
8896;DHT22;4484;48.928;10.066;2024-01-15T04:48:03;-2.60;99.90
8896;DHT22;4484;48.928;10.066;2024-01-15T04:50:30;-2.60;99.90
8896;DHT22;4484;48.928;10.066;2024-01-15T04:52:57;-2.60;99.90
8896;DHT22;4484;48.928;10.066;2024-01-15T04:55:24;-2.60;99.90
8896;DHT22;4484;48.928;10.066;2024-01-15T04:57:51;-2.50;99.90
8896;DHT22;4484;48.928;10.066;2024-01-15T05:00:17;-2.60;99.90
8896;DHT22;4484;48.928;10.066;2024-01-15T05:02:45;-2.60;99.90
8896;DHT22;4484;48.928;10.066;2024-01-15T05:05:11;-2.60;99.90
8896;DHT22;4484;48.928;10.066;2024-01-15T05:07:38;-2.60;99.90
8896;DHT22;4484;48.928;10.066;2024-01-15T05:10:06;-2.70;99.90
8896;DHT22;4484;48.928;10.066;2024-01-15T05:12:34;-2.60;99.90
8896;DHT22;4484;48.928;10.066;2024-01-15T05:15:02;-2.60;99.90
8896;DHT22;4484;48.928;10.066;2024-01-15T05:17:29;-2.60;99.90
8896;DHT22;4484;48.928;10.066;2024-01-15T05:19:55;-2.60;99.90
8896;DHT22;4484;48.928;10.066;2024-01-15T05:22:23;-2.60;99.90
8896;DHT22;4484;48.928;10.066;2024-01-15T05:24:51;-2.60;99.90
8896;DHT22;4484;48.928;10.066;2024-01-15T05:27:18;-2.60;99.90
8896;DHT22;4484;48.928;10.066;2024-01-15T05:29:45;-2.70;99.90
8896;DHT22;4484;48.928;10.066;2024-01-15T05:32:12;-2.70;99.90
8896;DHT22;4484;48.928;10.066;2024-01-15T05:34:39;-2.70;99.90
8896;DHT22;4484;48.928;10.066;2024-01-15T05:37:06;-2.70;99.90
8896;DHT22;4484;48.928;10.066;2024-01-15T05:39:33;-2.70;99.90
8896;DHT22;4484;48.928;10.066;2024-01-15T05:41:59;-2.80;99.90
8896;DHT22;4484;48.928;10.066;2024-01-15T05:44:27;-2.80;99.90
8896;DHT22;4484;48.928;10.066;2024-01-15T05:46:54;-2.80;99.90
8896;DHT22;4484;48.928;10.066;2024-01-15T05:49:21;-2.90;99.90
8896;DHT22;4484;48.928;10.066;2024-01-15T05:51:48;-2.80;99.90
8896;DHT22;4484;48.928;10.066;2024-01-15T05:54:17;-2.90;99.90
8896;DHT22;4484;48.928;10.066;2024-01-15T05:56:44;-2.90;99.90
8896;DHT22;4484;48.928;10.066;2024-01-15T05:59:10;-2.90;99.90
8896;DHT22;4484;48.928;10.066;2024-01-15T06:01:41;-2.90;99.90
8896;DHT22;4484;48.928;10.066;2024-01-15T06:04:08;-2.90;99.90
8896;DHT22;4484;48.928;10.066;2024-01-15T06:06:35;-2.90;99.90
8896;DHT22;4484;48.928;10.066;2024-01-15T06:09:02;-2.90;99.90
8896;DHT22;4484;48.928;10.066;2024-01-15T06:11:32;-2.90;99.90
8896;DHT22;4484;48.928;10.066;2024-01-15T06:13:59;-2.90;99.90
8896;DHT22;4484;48.928;10.066;2024-01-15T06:16:29;-2.90;99.90
8896;DHT22;4484;48.928;10.066;2024-01-15T06:18:55;-2.90;99.90
8896;DHT22;4484;48.928;10.066;2024-01-15T06:21:23;-2.90;99.90
8896;DHT22;4484;48.928;10.066;2024-01-15T06:23:50;-2.90;99.90
8896;DHT22;4484;48.928;10.066;2024-01-15T06:26:16;-2.80;99.90
8896;DHT22;4484;48.928;10.066;2024-01-15T06:28:43;-2.80;99.90
8896;DHT22;4484;48.928;10.066;2024-01-15T06:31:10;-2.80;99.90
8896;DHT22;4484;48.928;10.066;2024-01-15T06:33:37;-2.80;99.90
8896;DHT22;4484;48.928;10.066;2024-01-15T06:36:05;-2.80;99.90
8896;DHT22;4484;48.928;10.066;2024-01-15T06:38:32;-2.80;99.90
8896;DHT22;4484;48.928;10.066;2024-01-15T06:40:59;-2.80;99.90
8896;DHT22;4484;48.928;10.066;2024-01-15T06:43:26;-2.80;99.90
8896;DHT22;4484;48.928;10.066;2024-01-15T06:45:53;-2.80;99.90
8896;DHT22;4484;48.928;10.066;2024-01-15T06:48:20;-2.80;99.90
8896;DHT22;4484;48.928;10.066;2024-01-15T06:50:47;-2.80;99.90
8896;DHT22;4484;48.928;10.066;2024-01-15T06:53:14;-2.80;99.90
8896;DHT22;4484;48.928;10.066;2024-01-15T06:55:41;-2.80;99.90
8896;DHT22;4484;48.928;10.066;2024-01-15T06:58:07;-2.80;99.90
8896;DHT22;4484;48.928;10.066;2024-01-15T07:00:34;-2.80;99.90
8896;DHT22;4484;48.928;10.066;2024-01-15T07:03:02;-2.70;99.90
8896;DHT22;4484;48.928;10.066;2024-01-15T07:05:29;-2.70;99.90
8896;DHT22;4484;48.928;10.066;2024-01-15T07:07:57;-2.70;99.90
8896;DHT22;4484;48.928;10.066;2024-01-15T07:10:24;-2.70;99.90
8896;DHT22;4484;48.928;10.066;2024-01-15T07:12:51;-2.70;99.90
8896;DHT22;4484;48.928;10.066;2024-01-15T07:15:18;-2.70;99.90
8896;DHT22;4484;48.928;10.066;2024-01-15T07:17:45;-2.70;99.90
8896;DHT22;4484;48.928;10.066;2024-01-15T07:20:11;-2.70;99.90
8896;DHT22;4484;48.928;10.066;2024-01-15T07:22:38;-2.60;99.90
8896;DHT22;4484;48.928;10.066;2024-01-15T07:25:05;-2.60;99.90
8896;DHT22;4484;48.928;10.066;2024-01-15T07:27:33;-2.60;99.90
8896;DHT22;4484;48.928;10.066;2024-01-15T07:30:00;-2.60;99.90
8896;DHT22;4484;48.928;10.066;2024-01-15T07:32:29;-2.60;99.90
8896;DHT22;4484;48.928;10.066;2024-01-15T07:34:56;-2.50;99.90
8896;DHT22;4484;48.928;10.066;2024-01-15T07:37:23;-2.50;99.90
8896;DHT22;4484;48.928;10.066;2024-01-15T07:39:51;-2.50;99.90
8896;DHT22;4484;48.928;10.066;2024-01-15T07:42:18;-2.50;99.90
8896;DHT22;4484;48.928;10.066;2024-01-15T07:44:45;-2.50;99.90
8896;DHT22;4484;48.928;10.066;2024-01-15T07:47:12;-2.50;99.90
8896;DHT22;4484;48.928;10.066;2024-01-15T07:49:39;-2.40;99.90
8896;DHT22;4484;48.928;10.066;2024-01-15T07:52:06;-2.50;99.90
8896;DHT22;4484;48.928;10.066;2024-01-15T07:54:33;-2.40;99.90
8896;DHT22;4484;48.928;10.066;2024-01-15T07:57:01;-2.40;99.90
8896;DHT22;4484;48.928;10.066;2024-01-15T07:59:32;-2.30;99.90
8896;DHT22;4484;48.928;10.066;2024-01-15T08:01:59;-2.30;99.90
8896;DHT22;4484;48.928;10.066;2024-01-15T08:04:27;-2.30;99.90
8896;DHT22;4484;48.928;10.066;2024-01-15T08:06:54;-2.30;99.90
8896;DHT22;4484;48.928;10.066;2024-01-15T08:09:21;-2.30;99.90
8896;DHT22;4484;48.928;10.066;2024-01-15T08:11:48;-2.30;99.90
8896;DHT22;4484;48.928;10.066;2024-01-15T08:14:18;-2.30;99.90
8896;DHT22;4484;48.928;10.066;2024-01-15T08:16:46;-2.30;99.90
8896;DHT22;4484;48.928;10.066;2024-01-15T08:19:12;-2.20;99.90
8896;DHT22;4484;48.928;10.066;2024-01-15T08:21:41;-2.20;99.90
8896;DHT22;4484;48.928;10.066;2024-01-15T08:24:08;-2.20;99.90
8896;DHT22;4484;48.928;10.066;2024-01-15T08:26:37;-2.10;99.90
8896;DHT22;4484;48.928;10.066;2024-01-15T08:29:04;-2.00;99.90
8896;DHT22;4484;48.928;10.066;2024-01-15T08:31:31;-2.00;99.90
8896;DHT22;4484;48.928;10.066;2024-01-15T08:33:58;-2.00;99.90
8896;DHT22;4484;48.928;10.066;2024-01-15T08:36:26;-2.00;99.90
8896;DHT22;4484;48.928;10.066;2024-01-15T08:38:53;-2.00;99.90
8896;DHT22;4484;48.928;10.066;2024-01-15T08:41:19;-1.90;99.90
8896;DHT22;4484;48.928;10.066;2024-01-15T08:43:46;-1.90;99.90
8896;DHT22;4484;48.928;10.066;2024-01-15T08:46:13;-1.90;99.90
8896;DHT22;4484;48.928;10.066;2024-01-15T08:48:40;-1.90;99.90
8896;DHT22;4484;48.928;10.066;2024-01-15T08:51:07;-1.90;99.90
8896;DHT22;4484;48.928;10.066;2024-01-15T08:53:35;-1.80;99.90
8896;DHT22;4484;48.928;10.066;2024-01-15T08:56:01;-1.80;99.90
8896;DHT22;4484;48.928;10.066;2024-01-15T08:58:28;-1.70;99.90
8896;DHT22;4484;48.928;10.066;2024-01-15T09:00:55;-1.70;99.90
8896;DHT22;4484;48.928;10.066;2024-01-15T09:03:23;-1.60;99.90
8896;DHT22;4484;48.928;10.066;2024-01-15T09:05:49;-1.60;99.90
8896;DHT22;4484;48.928;10.066;2024-01-15T09:08:18;-1.60;99.90
8896;DHT22;4484;48.928;10.066;2024-01-15T09:10:45;-1.50;99.90
8896;DHT22;4484;48.928;10.066;2024-01-15T09:13:12;-1.50;99.90
8896;DHT22;4484;48.928;10.066;2024-01-15T09:15:39;-1.40;99.90
8896;DHT22;4484;48.928;10.066;2024-01-15T09:18:06;-1.40;99.90
8896;DHT22;4484;48.928;10.066;2024-01-15T09:20:34;-1.40;99.90
8896;DHT22;4484;48.928;10.066;2024-01-15T09:23:01;-1.40;99.90
8896;DHT22;4484;48.928;10.066;2024-01-15T09:25:29;-1.40;99.90
8896;DHT22;4484;48.928;10.066;2024-01-15T09:27:56;-1.30;99.90
8896;DHT22;4484;48.928;10.066;2024-01-15T09:30:23;-1.30;99.90
8896;DHT22;4484;48.928;10.066;2024-01-15T09:32:50;-1.30;99.90
8896;DHT22;4484;48.928;10.066;2024-01-15T09:35:17;-1.30;99.90
8896;DHT22;4484;48.928;10.066;2024-01-15T09:37:44;-1.20;99.90
8896;DHT22;4484;48.928;10.066;2024-01-15T09:40:14;-1.20;99.90
8896;DHT22;4484;48.928;10.066;2024-01-15T09:42:43;-1.20;99.90
8896;DHT22;4484;48.928;10.066;2024-01-15T09:45:10;-1.20;99.90
8896;DHT22;4484;48.928;10.066;2024-01-15T09:47:38;-1.10;99.90
8896;DHT22;4484;48.928;10.066;2024-01-15T09:50:11;-1.10;99.90
8896;DHT22;4484;48.928;10.066;2024-01-15T09:52:39;-1.10;99.90
8896;DHT22;4484;48.928;10.066;2024-01-15T09:55:08;-1.10;99.90
8896;DHT22;4484;48.928;10.066;2024-01-15T09:57:36;-1.10;99.90
8896;DHT22;4484;48.928;10.066;2024-01-15T10:00:05;-1.10;99.90
8896;DHT22;4484;48.928;10.066;2024-01-15T10:02:34;-1.00;99.90
8896;DHT22;4484;48.928;10.066;2024-01-15T10:05:02;-1.00;99.90
8896;DHT22;4484;48.928;10.066;2024-01-15T10:07:30;-1.00;99.90
8896;DHT22;4484;48.928;10.066;2024-01-15T10:10:01;-0.90;99.90
8896;DHT22;4484;48.928;10.066;2024-01-15T10:12:30;-0.90;99.90
8896;DHT22;4484;48.928;10.066;2024-01-15T10:14:57;-0.90;99.90
8896;DHT22;4484;48.928;10.066;2024-01-15T10:17:25;-0.80;99.90
8896;DHT22;4484;48.928;10.066;2024-01-15T10:19:55;-0.80;99.90
8896;DHT22;4484;48.928;10.066;2024-01-15T10:22:22;-0.80;99.90
8896;DHT22;4484;48.928;10.066;2024-01-15T10:24:49;-0.70;99.90
8896;DHT22;4484;48.928;10.066;2024-01-15T10:27:17;-0.70;99.90
8896;DHT22;4484;48.928;10.066;2024-01-15T10:29:44;-0.60;99.90
8896;DHT22;4484;48.928;10.066;2024-01-15T10:32:11;-0.60;99.90
8896;DHT22;4484;48.928;10.066;2024-01-15T10:34:42;-0.60;99.90
8896;DHT22;4484;48.928;10.066;2024-01-15T10:37:10;-0.50;99.90
8896;DHT22;4484;48.928;10.066;2024-01-15T10:39:37;-0.50;99.90
8896;DHT22;4484;48.928;10.066;2024-01-15T10:42:05;-0.40;99.90
8896;DHT22;4484;48.928;10.066;2024-01-15T10:44:33;-0.50;99.90
8896;DHT22;4484;48.928;10.066;2024-01-15T10:47:01;-0.50;99.90
8896;DHT22;4484;48.928;10.066;2024-01-15T10:49:28;-0.50;99.90
8896;DHT22;4484;48.928;10.066;2024-01-15T10:52:01;-0.50;99.90
8896;DHT22;4484;48.928;10.066;2024-01-15T10:54:29;-0.50;99.90
8896;DHT22;4484;48.928;10.066;2024-01-15T10:56:57;-0.50;99.90
8896;DHT22;4484;48.928;10.066;2024-01-15T10:59:24;-0.50;99.90
8896;DHT22;4484;48.928;10.066;2024-01-15T11:01:52;-0.40;99.90
8896;DHT22;4484;48.928;10.066;2024-01-15T11:04:22;-0.40;99.90
8896;DHT22;4484;48.928;10.066;2024-01-15T11:06:53;-0.40;99.90
8896;DHT22;4484;48.928;10.066;2024-01-15T11:09:22;-0.30;99.90
8896;DHT22;4484;48.928;10.066;2024-01-15T11:11:52;-0.30;99.90
8896;DHT22;4484;48.928;10.066;2024-01-15T11:14:39;-0.30;99.90
8896;DHT22;4484;48.928;10.066;2024-01-15T11:17:06;-0.30;99.90
8896;DHT22;4484;48.928;10.066;2024-01-15T11:19:47;-0.20;99.90
8896;DHT22;4484;48.928;10.066;2024-01-15T11:25:02;-0.20;99.90
8896;DHT22;4484;48.928;10.066;2024-01-15T11:27:40;-0.20;99.90
8896;DHT22;4484;48.928;10.066;2024-01-15T11:30:14;-0.20;99.90
8896;DHT22;4484;48.928;10.066;2024-01-15T11:32:41;-0.20;99.90
8896;DHT22;4484;48.928;10.066;2024-01-15T11:35:10;-0.20;99.90
8896;DHT22;4484;48.928;10.066;2024-01-15T11:40:23;-0.30;99.90
8896;DHT22;4484;48.928;10.066;2024-01-15T11:43:06;-0.30;99.90
8896;DHT22;4484;48.928;10.066;2024-01-15T11:45:36;-0.40;99.90
8896;DHT22;4484;48.928;10.066;2024-01-15T11:48:10;-0.40;99.90
8896;DHT22;4484;48.928;10.066;2024-01-15T11:50:43;-0.40;99.90
8896;DHT22;4484;48.928;10.066;2024-01-15T11:53:33;-0.40;99.90
8896;DHT22;4484;48.928;10.066;2024-01-15T11:56:03;-0.40;99.90
8896;DHT22;4484;48.928;10.066;2024-01-15T11:58:33;-0.40;99.90
8896;DHT22;4484;48.928;10.066;2024-01-15T12:01:02;-0.40;99.90
8896;DHT22;4484;48.928;10.066;2024-01-15T12:03:32;-0.40;99.90
8896;DHT22;4484;48.928;10.066;2024-01-15T12:06:00;-0.50;99.90
8896;DHT22;4484;48.928;10.066;2024-01-15T12:08:28;-0.50;99.90
8896;DHT22;4484;48.928;10.066;2024-01-15T12:10:55;-0.60;99.90
8896;DHT22;4484;48.928;10.066;2024-01-15T12:13:24;-0.70;99.90
8896;DHT22;4484;48.928;10.066;2024-01-15T12:15:50;-0.70;99.90
8896;DHT22;4484;48.928;10.066;2024-01-15T12:18:18;-0.80;99.90
8896;DHT22;4484;48.928;10.066;2024-01-15T12:20:46;-0.80;99.90
8896;DHT22;4484;48.928;10.066;2024-01-15T12:23:15;-0.90;99.90
8896;DHT22;4484;48.928;10.066;2024-01-15T12:25:43;-0.90;99.90
8896;DHT22;4484;48.928;10.066;2024-01-15T12:28:10;-1.00;99.90
8896;DHT22;4484;48.928;10.066;2024-01-15T12:30:37;-1.00;99.90
8896;DHT22;4484;48.928;10.066;2024-01-15T12:33:06;-1.00;99.90
8896;DHT22;4484;48.928;10.066;2024-01-15T12:35:34;-1.00;99.90
8896;DHT22;4484;48.928;10.066;2024-01-15T12:38:01;-1.00;99.90
8896;DHT22;4484;48.928;10.066;2024-01-15T12:40:33;-1.00;99.90
8896;DHT22;4484;48.928;10.066;2024-01-15T12:43:02;-1.00;99.90
8896;DHT22;4484;48.928;10.066;2024-01-15T12:45:30;-1.00;99.90
8896;DHT22;4484;48.928;10.066;2024-01-15T12:47:58;-1.00;99.90
8896;DHT22;4484;48.928;10.066;2024-01-15T12:50:27;-1.00;99.90
8896;DHT22;4484;48.928;10.066;2024-01-15T12:52:54;-1.00;99.90
8896;DHT22;4484;48.928;10.066;2024-01-15T12:55:20;-1.00;99.90
8896;DHT22;4484;48.928;10.066;2024-01-15T12:57:47;-1.00;99.90
8896;DHT22;4484;48.928;10.066;2024-01-15T13:00:16;-1.00;99.90
8896;DHT22;4484;48.928;10.066;2024-01-15T13:02:43;-0.90;99.90
8896;DHT22;4484;48.928;10.066;2024-01-15T13:05:11;-0.90;99.90
8896;DHT22;4484;48.928;10.066;2024-01-15T13:07:40;-0.90;99.90
8896;DHT22;4484;48.928;10.066;2024-01-15T13:10:07;-0.90;99.90
8896;DHT22;4484;48.928;10.066;2024-01-15T13:12:37;-0.90;99.90
8896;DHT22;4484;48.928;10.066;2024-01-15T13:15:05;-0.90;99.90
8896;DHT22;4484;48.928;10.066;2024-01-15T13:17:32;-0.90;99.90
8896;DHT22;4484;48.928;10.066;2024-01-15T13:19:59;-0.90;99.90
8896;DHT22;4484;48.928;10.066;2024-01-15T13:22:27;-0.90;99.90
8896;DHT22;4484;48.928;10.066;2024-01-15T13:24:58;-0.90;99.90
8896;DHT22;4484;48.928;10.066;2024-01-15T13:27:26;-0.90;99.90
8896;DHT22;4484;48.928;10.066;2024-01-15T13:29:53;-0.90;99.90
8896;DHT22;4484;48.928;10.066;2024-01-15T13:32:29;-0.90;99.90
8896;DHT22;4484;48.928;10.066;2024-01-15T13:34:57;-1.00;99.90
8896;DHT22;4484;48.928;10.066;2024-01-15T13:37:24;-1.00;99.90
8896;DHT22;4484;48.928;10.066;2024-01-15T13:39:52;-1.00;99.90
8896;DHT22;4484;48.928;10.066;2024-01-15T13:42:20;-1.00;99.90
8896;DHT22;4484;48.928;10.066;2024-01-15T13:44:49;-0.90;99.90
8896;DHT22;4484;48.928;10.066;2024-01-15T13:47:15;-0.90;99.90
8896;DHT22;4484;48.928;10.066;2024-01-15T13:49:42;-0.90;99.90
8896;DHT22;4484;48.928;10.066;2024-01-15T13:52:10;-0.90;99.90
8896;DHT22;4484;48.928;10.066;2024-01-15T13:54:36;-0.90;99.90
8896;DHT22;4484;48.928;10.066;2024-01-15T13:57:18;-0.80;99.90
8896;DHT22;4484;48.928;10.066;2024-01-15T13:59:47;-0.70;99.90
8896;DHT22;4484;48.928;10.066;2024-01-15T14:02:16;-0.70;99.90
8896;DHT22;4484;48.928;10.066;2024-01-15T14:04:47;-0.70;99.90
8896;DHT22;4484;48.928;10.066;2024-01-15T14:07:16;-0.70;99.90
8896;DHT22;4484;48.928;10.066;2024-01-15T14:09:42;-0.70;99.90
8896;DHT22;4484;48.928;10.066;2024-01-15T14:12:10;-0.80;99.90
8896;DHT22;4484;48.928;10.066;2024-01-15T14:14:36;-0.80;99.90
8896;DHT22;4484;48.928;10.066;2024-01-15T14:17:03;-0.90;99.90
8896;DHT22;4484;48.928;10.066;2024-01-15T14:19:30;-0.80;99.90
8896;DHT22;4484;48.928;10.066;2024-01-15T14:21:57;-0.80;99.90
8896;DHT22;4484;48.928;10.066;2024-01-15T14:24:24;-0.70;99.90
8896;DHT22;4484;48.928;10.066;2024-01-15T14:26:51;-0.70;99.90
8896;DHT22;4484;48.928;10.066;2024-01-15T14:29:18;-0.70;99.90
8896;DHT22;4484;48.928;10.066;2024-01-15T14:31:49;-0.70;99.90
8896;DHT22;4484;48.928;10.066;2024-01-15T14:34:16;-0.70;99.90
8896;DHT22;4484;48.928;10.066;2024-01-15T14:36:45;-0.60;99.90
8896;DHT22;4484;48.928;10.066;2024-01-15T14:39:13;-0.70;99.90
8896;DHT22;4484;48.928;10.066;2024-01-15T14:41:40;-0.80;99.90
8896;DHT22;4484;48.928;10.066;2024-01-15T14:44:07;-0.80;99.90
8896;DHT22;4484;48.928;10.066;2024-01-15T14:46:34;-0.80;99.90
8896;DHT22;4484;48.928;10.066;2024-01-15T14:49:00;-0.90;99.90
8896;DHT22;4484;48.928;10.066;2024-01-15T14:51:27;-0.90;99.90
8896;DHT22;4484;48.928;10.066;2024-01-15T14:53:54;-0.90;99.90
8896;DHT22;4484;48.928;10.066;2024-01-15T14:56:21;-1.00;99.90
8896;DHT22;4484;48.928;10.066;2024-01-15T14:58:48;-1.00;99.90
8896;DHT22;4484;48.928;10.066;2024-01-15T15:01:15;-1.00;99.90
8896;DHT22;4484;48.928;10.066;2024-01-15T15:03:43;-1.00;99.90
8896;DHT22;4484;48.928;10.066;2024-01-15T15:06:11;-1.00;99.90
8896;DHT22;4484;48.928;10.066;2024-01-15T15:08:39;-1.00;99.90
8896;DHT22;4484;48.928;10.066;2024-01-15T15:11:07;-1.10;99.90
8896;DHT22;4484;48.928;10.066;2024-01-15T15:13:33;-1.10;99.90
8896;DHT22;4484;48.928;10.066;2024-01-15T15:16:11;-1.10;99.90
8896;DHT22;4484;48.928;10.066;2024-01-15T15:18:40;-1.10;99.90
8896;DHT22;4484;48.928;10.066;2024-01-15T15:21:10;-1.20;99.90
8896;DHT22;4484;48.928;10.066;2024-01-15T15:23:38;-1.20;99.90
8896;DHT22;4484;48.928;10.066;2024-01-15T15:26:09;-1.30;99.90
8896;DHT22;4484;48.928;10.066;2024-01-15T15:28:36;-1.30;99.90
8896;DHT22;4484;48.928;10.066;2024-01-15T15:31:07;-1.30;99.90
8896;DHT22;4484;48.928;10.066;2024-01-15T15:33:40;-1.40;99.90
8896;DHT22;4484;48.928;10.066;2024-01-15T15:36:07;-1.40;99.90
8896;DHT22;4484;48.928;10.066;2024-01-15T15:38:34;-1.30;99.90
8896;DHT22;4484;48.928;10.066;2024-01-15T15:41:01;-1.40;99.90
8896;DHT22;4484;48.928;10.066;2024-01-15T15:43:29;-1.40;99.90
8896;DHT22;4484;48.928;10.066;2024-01-15T15:45:56;-1.40;99.90
8896;DHT22;4484;48.928;10.066;2024-01-15T15:48:25;-1.50;99.90
8896;DHT22;4484;48.928;10.066;2024-01-15T15:50:52;-1.50;99.90
8896;DHT22;4484;48.928;10.066;2024-01-15T15:53:19;-1.60;99.90